createdAt,value
2019-03-11T00:00:37.770Z,54.19
2019-03-11T00:03:09.146Z,54.31
2019-03-11T00:05:40.589Z,53.91
2019-03-11T00:08:11.817Z,54.16
2019-03-11T00:10:43.089Z,54.31
2019-03-11T00:13:14.319Z,54.61
2019-03-11T00:15:45.587Z,54.61
2019-03-11T00:18:16.835Z,54.66
2019-03-11T00:20:48.117Z,53.95
2019-03-11T00:23:19.348Z,54.21
2019-03-11T00:25:50.728Z,54.47
2019-03-11T00:28:22.017Z,54.75
2019-03-11T00:30:53.377Z,54.58
2019-03-11T00:33:24.745Z,54.51
2019-03-11T00:35:56.057Z,55.31
2019-03-11T00:38:27.286Z,55.46
2019-03-11T00:40:58.635Z,55.56
2019-03-11T00:43:29.860Z,56.11
2019-03-11T00:46:01.541Z,55.88
2019-03-11T00:48:32.769Z,56.03
2019-03-11T00:51:04.132Z,56.05
2019-03-11T00:53:35.533Z,55.83
2019-03-11T00:56:06.879Z,55.51
2019-03-11T00:58:38.177Z,55.37
2019-03-11T01:01:09.548Z,54.59
2019-03-11T01:03:40.787Z,55.07
2019-03-11T01:06:12.204Z,54.48
2019-03-11T01:08:43.451Z,54.60
2019-03-11T01:11:14.801Z,54.59
2019-03-11T01:13:46.036Z,54.40
2019-03-11T01:16:17.377Z,54.72
2019-03-11T01:18:48.719Z,54.27
2019-03-11T01:21:19.954Z,54.48
2019-03-11T01:23:51.315Z,54.58
2019-03-11T01:26:22.542Z,55.21
2019-03-11T01:28:53.827Z,55.04
2019-03-11T01:31:25.128Z,55.33
2019-03-11T01:33:56.365Z,55.52
2019-03-11T01:36:27.667Z,55.43
2019-03-11T01:38:58.889Z,55.71
2019-03-11T01:41:30.220Z,55.56
2019-03-11T01:44:01.485Z,55.21
2019-03-11T01:46:32.799Z,55.75
2019-03-11T01:49:05.157Z,55.51
2019-03-11T01:51:36.394Z,55.05
2019-03-11T01:54:07.669Z,55.55
2019-03-11T01:56:38.973Z,55.29
2019-03-11T01:59:10.349Z,55.01
2019-03-11T02:01:41.647Z,55.38
2019-03-11T02:04:12.849Z,55.73
2019-03-11T02:06:44.212Z,55.09
2019-03-11T02:09:15.505Z,55.44
2019-03-11T02:11:50.449Z,55.33
2019-03-11T02:14:22.749Z,55.65
2019-03-11T02:16:54.091Z,55.28
2019-03-11T02:19:25.323Z,55.84
2019-03-11T02:21:56.637Z,55.66
2019-03-11T02:24:27.922Z,55.23
2019-03-11T02:26:59.330Z,55.83
2019-03-11T02:29:30.564Z,55.29
2019-03-11T02:32:01.920Z,55.16
2019-03-11T02:34:33.144Z,55.48
2019-03-11T02:37:05.623Z,55.19
2019-03-11T02:39:36.825Z,55.07
2019-03-11T02:42:08.773Z,54.66
2019-03-11T02:44:40.200Z,55.11
2019-03-11T02:47:11.425Z,54.94
2019-03-11T02:49:44.146Z,54.95
2019-03-11T02:52:16.538Z,54.79
2019-03-11T02:54:47.837Z,55.27
2019-03-11T02:57:25.004Z,55.29
2019-03-11T02:59:56.299Z,55.83
2019-03-11T03:02:29.225Z,56.32
2019-03-11T03:05:04.879Z,55.47
2019-03-11T03:07:36.187Z,55.91
2019-03-11T03:10:10.540Z,56.87
2019-03-11T03:12:43.374Z,56.39
2019-03-11T03:15:15.168Z,56.81
2019-03-11T03:17:46.395Z,57.41
2019-03-11T03:20:18.356Z,58.10
2019-03-11T03:22:49.678Z,58.21
2019-03-11T03:25:33.231Z,57.78
2019-03-11T03:27:54.212Z,57.61
2019-03-11T03:30:26.716Z,58.63
2019-03-11T03:32:58.314Z,58.08
2019-03-11T03:35:29.676Z,58.14
2019-03-11T03:38:01.013Z,57.98
2019-03-11T03:40:32.226Z,58.65
2019-03-11T03:43:05.493Z,58.60
2019-03-11T03:45:41.249Z,58.80
2019-03-11T03:48:12.653Z,58.25
2019-03-11T03:50:44.013Z,58.60
2019-03-11T03:53:15.350Z,58.47
2019-03-11T03:55:53.751Z,59.24
2019-03-11T03:58:26.151Z,59.21
2019-03-11T04:01:16.570Z,59.82
2019-03-11T04:03:47.888Z,61.12
2019-03-11T04:06:19.117Z,62.77
2019-03-11T04:08:53.922Z,63.92
2019-03-11T04:11:25.281Z,64.68
2019-03-11T04:13:56.584Z,67.61
2019-03-11T04:16:27.890Z,70.86
2019-03-11T04:18:59.421Z,71.38
2019-03-11T04:21:30.701Z,71.42
2019-03-11T04:24:02.297Z,72.16
2019-03-11T04:26:33.661Z,73.80
2019-03-11T04:29:05.979Z,74.88
2019-03-11T04:31:37.301Z,74.04
2019-03-11T04:34:08.555Z,73.79
2019-03-11T04:36:39.984Z,74.38
2019-03-11T04:39:11.197Z,73.96
2019-03-11T04:41:42.470Z,73.53
2019-03-11T04:44:13.684Z,72.96
2019-03-11T04:46:44.954Z,71.96
2019-03-11T04:49:16.172Z,73.20
2019-03-11T04:51:47.454Z,75.29
2019-03-11T04:54:18.679Z,75.96
2019-03-11T04:56:50.020Z,76.44
2019-03-11T04:59:21.308Z,75.18
2019-03-11T05:01:52.594Z,74.10
2019-03-11T05:04:23.817Z,74.07
2019-03-11T05:06:55.042Z,72.53
2019-03-11T05:09:26.358Z,72.20
2019-03-11T05:11:57.576Z,71.60
2019-03-11T05:14:28.903Z,71.51
2019-03-11T05:17:00.122Z,72.16
2019-03-11T05:19:32.691Z,70.41
2019-03-11T05:22:03.977Z,70.29
2019-03-11T05:24:35.248Z,70.81
2019-03-11T05:27:06.464Z,70.50
2019-03-11T05:29:37.810Z,69.95
2019-03-11T05:32:09.025Z,69.49
2019-03-11T05:34:42.686Z,69.53
2019-03-11T05:37:18.218Z,70.10
2019-03-11T05:39:49.503Z,69.33
2019-03-11T05:42:20.810Z,70.12
2019-03-11T05:44:53.132Z,70.20
2019-03-11T05:47:24.348Z,70.43
2019-03-11T05:49:55.688Z,71.45
2019-03-11T05:52:26.905Z,70.48
2019-03-11T05:54:58.186Z,69.85
2019-03-11T05:57:29.486Z,70.13
2019-03-11T06:00:00.755Z,70.03
2019-03-11T06:02:32.037Z,68.70
2019-03-11T06:05:04.775Z,70.12
2019-03-11T06:07:36.075Z,69.42
2019-03-11T06:10:15.132Z,69.09
2019-03-11T06:12:46.364Z,69.75
2019-03-11T06:15:17.766Z,69.87
2019-03-11T06:17:49.515Z,69.84
2019-03-11T06:20:40.873Z,68.95
2019-03-11T06:23:13.789Z,69.01
2019-03-11T06:25:45.465Z,69.37
2019-03-11T06:28:16.679Z,68.99
2019-03-11T06:30:48.005Z,68.32
2019-03-11T06:33:19.267Z,67.81
2019-03-11T06:35:50.487Z,66.90
2019-03-11T06:38:21.758Z,65.78
2019-03-11T06:40:53.064Z,67.90
2019-03-11T06:43:24.439Z,68.98
2019-03-11T06:45:55.711Z,69.56
2019-03-11T06:48:27.017Z,70.33
2019-03-11T06:50:58.233Z,70.08
2019-03-11T06:53:29.511Z,70.59
2019-03-11T06:56:00.791Z,70.35
2019-03-11T06:58:34.319Z,70.18
2019-03-11T07:01:05.613Z,70.66
2019-03-11T07:03:36.947Z,71.30
2019-03-11T07:06:08.161Z,70.75
2019-03-11T07:08:39.374Z,70.54
2019-03-11T07:11:10.733Z,71.00
2019-03-11T07:13:41.996Z,71.31
2019-03-11T07:16:13.458Z,71.34
2019-03-11T07:18:44.680Z,71.55
2019-03-11T07:21:15.969Z,71.25
2019-03-11T07:23:47.209Z,71.33
2019-03-11T07:26:18.473Z,71.71
2019-03-11T07:28:49.706Z,71.79
2019-03-11T07:31:22.057Z,69.35
2019-03-11T07:33:53.278Z,69.18
2019-03-11T07:36:24.554Z,68.02
2019-03-11T07:38:55.828Z,67.66
2019-03-11T07:41:27.095Z,68.06
2019-03-11T07:43:58.311Z,67.10
2019-03-11T07:46:29.579Z,66.44
2019-03-11T07:49:00.805Z,65.92
2019-03-11T07:51:32.074Z,65.35
2019-03-11T07:54:03.361Z,64.15
2019-03-11T07:56:35.839Z,65.22
2019-03-11T07:59:08.126Z,64.20
2019-03-11T08:01:39.394Z,63.37
2019-03-11T08:04:10.682Z,63.83
2019-03-11T08:06:41.950Z,63.33
2019-03-11T08:09:13.169Z,64.06
2019-03-11T08:11:44.580Z,62.64
2019-03-11T08:14:15.802Z,62.15
2019-03-11T08:16:47.155Z,62.22
2019-03-11T08:19:18.368Z,61.90
2019-03-11T08:21:49.710Z,61.54
2019-03-11T08:24:21.001Z,60.27
2019-03-11T08:26:52.275Z,59.42
2019-03-11T08:29:23.558Z,61.87
2019-03-11T08:31:54.825Z,59.41
2019-03-11T08:34:26.110Z,59.61
2019-03-11T08:36:57.395Z,57.63
2019-03-11T08:39:28.614Z,56.92
2019-03-11T08:41:59.951Z,55.68
2019-03-11T08:44:31.170Z,54.60
2019-03-11T08:47:02.533Z,55.41
2019-03-11T08:49:33.826Z,52.69
2019-03-11T08:52:05.540Z,53.01
2019-03-11T08:54:36.938Z,51.52
2019-03-11T08:57:08.206Z,53.61
2019-03-11T08:59:39.436Z,51.57
2019-03-11T09:02:10.814Z,53.20
2019-03-11T09:04:42.101Z,50.73
2019-03-11T09:07:13.379Z,51.05
2019-03-11T09:09:44.606Z,49.89
2019-03-11T09:12:15.952Z,51.39
2019-03-11T09:14:47.242Z,50.42
2019-03-11T09:17:18.512Z,49.08
2019-03-11T09:19:49.727Z,48.44
2019-03-11T09:22:21.166Z,47.64
2019-03-11T09:24:52.456Z,48.64
2019-03-11T09:27:23.721Z,50.51
2019-03-11T09:29:54.990Z,48.17
2019-03-11T09:32:26.277Z,49.30
2019-03-11T09:34:57.709Z,48.35
2019-03-11T09:37:28.932Z,48.49
2019-03-11T09:40:01.305Z,47.48
2019-03-11T09:42:34.015Z,45.19
2019-03-11T09:45:10.448Z,47.13
2019-03-11T09:47:41.745Z,48.38
2019-03-11T09:50:17.772Z,46.50
2019-03-11T09:52:49.121Z,46.83
2019-03-11T09:55:23.419Z,44.66
2019-03-11T09:57:54.760Z,43.35
2019-03-11T10:00:31.499Z,44.50
2019-03-11T10:03:02.842Z,44.88
2019-03-11T10:05:34.065Z,45.87
2019-03-11T10:08:06.497Z,45.15
2019-03-11T10:10:37.712Z,45.94
2019-03-11T10:13:09.046Z,43.15
2019-03-11T10:15:40.265Z,43.80
2019-03-11T10:18:11.611Z,42.46
2019-03-11T10:20:42.926Z,41.94
2019-03-11T10:23:14.218Z,41.39
2019-03-11T10:25:45.438Z,43.07
2019-03-11T10:28:16.774Z,41.95
2019-03-11T10:30:48.061Z,41.43
2019-03-11T10:33:19.329Z,41.02
2019-03-11T10:35:50.544Z,41.92
2019-03-11T10:40:52.117Z,42.80
2019-03-11T10:43:24.518Z,41.65
2019-03-11T10:45:55.792Z,42.98
2019-03-11T10:48:36.609Z,43.64
2019-03-11T10:51:00.278Z,42.17
2019-03-11T10:53:31.585Z,41.84
2019-03-11T10:56:03.042Z,41.09
2019-03-11T10:58:34.330Z,41.93
2019-03-11T11:01:06.208Z,41.50
2019-03-11T11:03:37.500Z,42.95
2019-03-11T11:06:08.776Z,42.19
2019-03-11T11:08:40.068Z,42.34
2019-03-11T11:11:11.356Z,42.23
2019-03-11T11:13:42.722Z,40.74
2019-03-11T11:16:14.078Z,42.08
2019-03-11T11:18:45.357Z,39.83
2019-03-11T11:21:16.657Z,39.49
2019-03-11T11:23:47.999Z,40.70
2019-03-11T11:26:19.357Z,39.59
2019-03-11T11:28:50.672Z,39.26
2019-03-11T11:31:21.947Z,40.47
2019-03-11T11:33:53.209Z,38.47
2019-03-11T11:36:24.479Z,40.54
2019-03-11T11:38:55.785Z,39.89
2019-03-11T11:41:27.201Z,38.96
2019-03-11T11:43:58.421Z,38.99
2019-03-11T11:46:29.779Z,38.84
2019-03-11T11:49:02.065Z,39.55
2019-03-11T11:51:33.346Z,41.31
2019-03-11T11:54:04.650Z,39.23
2019-03-11T11:56:35.906Z,40.83
2019-03-11T11:59:07.200Z,40.57
2019-03-11T12:01:38.479Z,39.60
2019-03-11T12:04:09.701Z,41.35
2019-03-11T12:06:40.993Z,40.47
2019-03-11T12:09:12.226Z,42.26
2019-03-11T12:11:44.282Z,40.57
2019-03-11T12:14:15.540Z,43.87
2019-03-11T12:16:46.835Z,39.59
2019-03-11T12:19:18.443Z,38.73
2019-03-11T12:21:49.659Z,38.93
2019-03-11T12:24:20.992Z,40.12
2019-03-11T12:26:52.212Z,40.22
2019-03-11T12:29:23.552Z,39.59
2019-03-11T12:31:54.787Z,40.42
2019-03-11T12:34:26.077Z,41.78
2019-03-11T12:36:57.412Z,40.37
2019-03-11T12:39:29.834Z,40.13
2019-03-11T12:42:01.130Z,40.98
2019-03-11T12:44:32.401Z,41.19
2019-03-11T12:47:03.753Z,38.89
2019-03-11T12:49:35.039Z,39.77
2019-03-11T12:52:06.259Z,39.07
2019-03-11T12:54:37.580Z,39.83
2019-03-11T12:57:08.958Z,40.39
2019-03-11T12:59:40.934Z,40.64
2019-03-11T13:02:12.601Z,41.21
2019-03-11T13:04:43.831Z,39.38
2019-03-11T13:07:15.093Z,40.57
2019-03-11T13:09:47.096Z,40.75
2019-03-11T13:12:18.610Z,41.16
2019-03-11T13:14:50.109Z,40.23
2019-03-11T13:17:21.299Z,39.62
2019-03-11T13:19:56.767Z,39.38
2019-03-11T13:22:28.257Z,38.02
2019-03-11T13:24:59.554Z,38.49
2019-03-11T13:27:32.479Z,39.66
2019-03-11T13:30:05.760Z,39.44
2019-03-11T13:32:37.527Z,38.16
2019-03-11T13:35:11.769Z,38.14
2019-03-11T13:37:43.050Z,37.69
2019-03-11T13:40:15.870Z,38.05
2019-03-11T13:42:47.167Z,37.89
2019-03-11T13:45:20.211Z,37.28
2019-03-11T13:47:51.499Z,38.76
2019-03-11T13:50:22.736Z,37.60
2019-03-11T13:52:54.136Z,38.98
2019-03-11T13:55:25.438Z,39.10
2019-03-11T13:57:56.817Z,37.39
2019-03-11T14:00:28.127Z,38.46
2019-03-11T14:03:02.570Z,37.77
2019-03-11T14:05:45.891Z,36.85
2019-03-11T14:08:17.189Z,37.88
2019-03-11T14:10:48.529Z,37.32
2019-03-11T14:13:19.822Z,39.75
2019-03-11T14:15:51.236Z,43.85
2019-03-11T14:18:27.241Z,45.44
2019-03-11T14:20:58.525Z,46.47
2019-03-11T14:23:32.507Z,44.83
2019-03-11T14:26:11.766Z,44.63
2019-03-11T14:28:43.119Z,44.65
2019-03-11T14:31:24.369Z,43.13
2019-03-11T14:33:55.590Z,40.91
2019-03-11T14:36:37.978Z,41.55
2019-03-11T14:39:27.423Z,40.79
2019-03-11T14:42:00.290Z,41.08
2019-03-11T14:44:33.970Z,40.71
2019-03-11T14:47:05.750Z,40.86
2019-03-11T14:49:38.914Z,40.89
2019-03-11T14:52:10.162Z,40.56
2019-03-11T14:54:44.486Z,41.54
2019-03-11T14:57:15.794Z,41.02
2019-03-11T14:59:47.111Z,40.65
2019-03-11T15:02:18.420Z,40.21
2019-03-11T15:04:51.096Z,42.43
2019-03-11T15:07:22.827Z,41.53
2019-03-11T15:09:58.693Z,40.67
2019-03-11T15:12:29.989Z,40.67
2019-03-11T15:15:01.210Z,40.63
2019-03-11T15:17:34.397Z,41.88
2019-03-11T15:20:08.333Z,41.67
2019-03-11T15:22:39.623Z,41.55
2019-03-11T15:25:14.162Z,42.13
2019-03-11T15:27:45.636Z,41.79
2019-03-11T15:30:24.565Z,42.67
2019-03-11T15:32:58.627Z,42.60
2019-03-11T15:35:29.944Z,40.67
2019-03-11T15:38:01.249Z,39.88
2019-03-11T15:40:32.659Z,41.13
2019-03-11T15:43:06.310Z,40.37
2019-03-11T15:45:39.259Z,40.07
2019-03-11T15:48:17.793Z,40.54
2019-03-11T15:50:49.197Z,43.02
2019-03-11T15:53:20.528Z,43.00
2019-03-11T15:55:51.945Z,42.95
2019-03-11T15:58:23.220Z,40.84
2019-03-11T16:00:54.566Z,42.11
2019-03-11T16:03:35.911Z,42.55
2019-03-11T16:06:00.155Z,42.22
2019-03-11T16:08:32.229Z,41.92
2019-03-11T16:11:06.546Z,41.05
2019-03-11T16:13:38.012Z,41.75
2019-03-11T16:16:09.392Z,41.66
2019-03-11T16:18:40.792Z,42.64
2019-03-11T16:21:12.143Z,42.93
2019-03-11T16:23:43.428Z,43.33
2019-03-11T16:26:14.766Z,42.62
2019-03-11T16:28:51.712Z,42.54
2019-03-11T16:31:30.206Z,42.15
2019-03-11T16:34:01.418Z,42.16
2019-03-11T16:36:32.696Z,41.45
2019-03-11T16:39:04.832Z,41.85
2019-03-11T16:41:37.876Z,42.21
2019-03-11T16:44:19.837Z,41.93
2019-03-11T16:46:51.121Z,42.58
2019-03-11T16:49:31.138Z,42.04
2019-03-11T16:52:03.529Z,42.57
2019-03-11T16:54:34.819Z,43.09
2019-03-11T16:57:12.927Z,43.43
2019-03-11T16:59:44.220Z,43.42
2019-03-11T17:02:15.610Z,43.05
2019-03-11T17:04:46.949Z,45.83
2019-03-11T17:07:18.202Z,44.06
2019-03-11T17:09:49.615Z,44.27
2019-03-11T17:12:20.913Z,44.19
2019-03-11T17:14:55.024Z,45.28
2019-03-11T17:17:28.002Z,44.23
2019-03-11T17:20:00.286Z,43.79
2019-03-11T17:22:31.852Z,44.13
2019-03-11T17:25:03.267Z,44.73
2019-03-11T17:27:34.468Z,44.83
2019-03-11T17:30:13.409Z,45.23
2019-03-11T17:32:44.904Z,46.46
2019-03-11T17:35:17.280Z,47.33
2019-03-11T17:37:48.881Z,47.34
2019-03-11T17:40:21.927Z,46.60
2019-03-11T17:42:53.619Z,46.77
2019-03-11T17:45:25.045Z,47.07
2019-03-11T17:47:56.350Z,47.25
2019-03-11T17:50:27.738Z,47.54
2019-03-11T17:53:01.465Z,47.95
2019-03-11T17:55:32.891Z,48.15
2019-03-11T17:58:04.369Z,49.09
2019-03-11T18:00:54.555Z,49.28
2019-03-11T18:03:16.446Z,49.70
2019-03-11T18:05:47.889Z,50.74
2019-03-11T18:08:20.747Z,50.42
2019-03-11T18:10:52.058Z,50.63
2019-03-11T18:13:23.317Z,50.47
2019-03-11T18:15:54.752Z,50.12
2019-03-11T18:18:32.972Z,50.27
2019-03-11T18:20:59.878Z,50.94
2019-03-11T18:23:32.323Z,52.56
2019-03-11T18:26:03.550Z,52.38
2019-03-11T18:28:34.847Z,51.93
2019-03-11T18:31:06.399Z,51.49
2019-03-11T18:33:47.440Z,51.76
2019-03-11T18:36:19.559Z,51.60
2019-03-11T18:38:50.957Z,51.84
2019-03-11T18:41:22.401Z,51.48
2019-03-11T18:43:53.696Z,52.09
2019-03-11T18:46:24.998Z,52.52
2019-03-11T18:48:56.209Z,52.52
2019-03-11T18:51:27.458Z,51.73
2019-03-11T18:54:01.405Z,51.64
2019-03-11T18:56:35.943Z,51.67
2019-03-11T18:59:12.011Z,51.93
2019-03-11T19:01:43.734Z,52.08
2019-03-11T19:04:15.001Z,52.44
2019-03-11T19:06:46.876Z,52.30
2019-03-11T19:09:18.382Z,52.03
2019-03-11T19:11:50.133Z,52.67
2019-03-11T19:14:21.522Z,50.55
2019-03-11T19:16:52.855Z,51.23
2019-03-11T19:19:24.225Z,51.19
2019-03-11T19:21:55.552Z,51.04
2019-03-11T19:24:26.889Z,51.37
2019-03-11T19:26:58.252Z,51.23
2019-03-11T19:29:29.479Z,52.26
2019-03-11T19:32:02.943Z,52.42
2019-03-11T19:34:34.304Z,52.05
2019-03-11T19:37:05.829Z,52.38
2019-03-11T19:39:37.089Z,52.90
2019-03-11T19:42:08.662Z,52.40
2019-03-11T19:44:39.912Z,52.16
2019-03-11T19:47:11.331Z,52.56
2019-03-11T19:49:42.907Z,52.21
2019-03-11T19:52:14.293Z,52.06
2019-03-11T19:54:45.793Z,52.98
2019-03-11T19:57:23.262Z,52.42
2019-03-11T19:59:54.508Z,52.65
2019-03-11T20:02:27.879Z,52.58
2019-03-11T20:04:59.352Z,52.81
2019-03-11T20:07:30.807Z,53.13
2019-03-11T20:10:02.064Z,53.10
2019-03-11T20:12:37.683Z,53.57
2019-03-11T20:15:13.478Z,53.70
2019-03-11T20:17:49.477Z,53.68
2019-03-11T20:20:21.579Z,53.67
2019-03-11T20:22:53.794Z,53.29
2019-03-11T20:25:34.675Z,53.22
2019-03-11T20:28:07.235Z,53.17
2019-03-11T20:30:38.432Z,53.13
2019-03-11T20:33:10.756Z,52.48
2019-03-11T20:36:01.066Z,53.15
2019-03-11T20:38:33.767Z,53.32
2019-03-11T20:41:05.201Z,52.88
2019-03-11T20:43:36.596Z,53.44
2019-03-11T20:46:08.030Z,53.24
2019-03-11T20:48:39.387Z,52.77
2019-03-11T20:51:10.904Z,53.01
2019-03-11T20:53:43.951Z,53.16
2019-03-11T20:56:16.305Z,53.07
2019-03-11T20:58:47.714Z,52.56
2019-03-11T21:01:18.923Z,52.44
2019-03-11T21:03:51.383Z,52.59
2019-03-11T21:06:31.961Z,52.40
2019-03-11T21:09:08.229Z,52.43
2019-03-11T21:11:41.249Z,52.93
2019-03-11T21:14:12.678Z,53.47
2019-03-11T21:16:43.981Z,53.26
2019-03-11T21:19:15.398Z,53.08
2019-03-11T21:21:46.680Z,53.42
2019-03-11T21:24:19.297Z,54.12
2019-03-11T21:26:50.838Z,53.95
2019-03-11T21:29:22.226Z,53.80
2019-03-11T21:31:53.596Z,53.70
2019-03-11T21:34:25.818Z,53.45
2019-03-11T21:36:57.116Z,53.75
2019-03-11T21:39:28.574Z,53.77
2019-03-11T21:41:59.825Z,53.29
2019-03-11T21:44:31.226Z,53.43
2019-03-11T21:47:02.798Z,53.56
2019-03-11T21:49:34.112Z,53.69
2019-03-11T21:52:05.442Z,53.96
2019-03-11T21:54:38.524Z,53.96
2019-03-11T21:57:09.811Z,53.45
2019-03-11T21:59:41.348Z,53.64
2019-03-11T22:02:12.736Z,53.73
2019-03-11T22:04:44.006Z,54.13
2019-03-11T22:07:15.282Z,54.75
2019-03-11T22:09:47.751Z,54.84
2019-03-11T22:12:18.993Z,54.71
2019-03-11T22:14:50.325Z,54.70
2019-03-11T22:17:21.651Z,55.40
2019-03-11T22:19:52.916Z,55.25
2019-03-11T22:22:24.283Z,55.85
2019-03-11T22:24:55.644Z,55.52
2019-03-11T22:27:26.930Z,55.86
2019-03-11T22:29:58.342Z,55.78
2019-03-11T22:32:29.738Z,56.28
2019-03-11T22:35:12.511Z,57.06
2019-03-11T22:37:45.367Z,56.16
2019-03-11T22:40:18.249Z,56.46
2019-03-11T22:42:49.920Z,56.86
2019-03-11T22:45:22.472Z,56.98
2019-03-11T22:47:54.078Z,57.13
2019-03-11T22:50:26.298Z,56.75
2019-03-11T22:52:57.577Z,57.03
2019-03-11T22:55:29.092Z,57.11
2019-03-11T22:58:00.360Z,57.77
2019-03-11T23:00:58.830Z,57.94
2019-03-11T23:03:32.609Z,58.17
2019-03-11T23:06:04.116Z,58.55
2019-03-11T23:08:35.331Z,59.48
2019-03-11T23:11:06.657Z,58.96
2019-03-11T23:13:37.878Z,59.19
2019-03-11T23:16:09.291Z,59.06
2019-03-11T23:18:40.582Z,59.36
2019-03-11T23:21:11.866Z,59.19
2019-03-11T23:23:43.078Z,58.95
2019-03-11T23:26:14.545Z,58.86
2019-03-11T23:28:45.822Z,59.04
2019-03-11T23:31:17.706Z,59.06
2019-03-11T23:33:48.929Z,59.26
2019-03-11T23:36:20.260Z,59.30
2019-03-11T23:38:51.478Z,59.38
2019-03-11T23:41:24.334Z,59.23
2019-03-11T23:43:55.860Z,59.58
2019-03-11T23:46:27.143Z,59.65
2019-03-11T23:48:58.401Z,59.53
2019-03-11T23:51:29.707Z,59.46
2019-03-11T23:54:01.022Z,59.40
2019-03-11T23:56:32.239Z,60.22
2019-03-11T23:59:03.510Z,59.96
